createdAt,value
2019-05-23T00:01:26.304Z,3.60
2019-05-23T00:06:31.874Z,2.63
2019-05-23T00:11:44.774Z,2.47
2019-05-23T00:16:48.666Z,3.20
2019-05-23T00:21:53.854Z,3.07
2019-05-23T00:26:59.541Z,2.33
2019-05-23T00:32:15.403Z,3.00
2019-05-23T00:37:21.324Z,3.00
2019-05-23T00:42:26.263Z,2.73
2019-05-23T00:47:30.105Z,2.63
2019-05-23T00:52:33.887Z,2.37
2019-05-23T00:57:39.633Z,2.70
2019-05-23T01:02:44.706Z,2.50
2019-05-23T01:07:48.532Z,2.37
2019-05-23T01:12:53.058Z,2.43
2019-05-23T01:17:57.871Z,2.63
2019-05-23T01:23:04.203Z,1.90
2019-05-23T01:28:08.421Z,2.40
2019-05-23T01:33:12.781Z,2.23
2019-05-23T01:38:16.837Z,2.33
2019-05-23T01:43:20.686Z,2.20
2019-05-23T01:48:25.177Z,2.10
2019-05-23T01:53:29.650Z,2.30
2019-05-23T01:58:34.860Z,2.33
2019-05-23T02:03:39.253Z,2.40
2019-05-23T02:08:43.131Z,2.37
2019-05-23T02:13:46.896Z,2.20
2019-05-23T02:18:50.730Z,2.10
2019-05-23T02:23:54.444Z,2.00
2019-05-23T02:28:58.834Z,1.90
2019-05-23T02:34:02.620Z,2.47
2019-05-23T02:39:25.355Z,2.00
2019-05-23T02:44:31.671Z,2.57
2019-05-23T02:49:37.820Z,2.00
2019-05-23T02:54:41.559Z,1.80
2019-05-23T02:59:48.881Z,2.20
2019-05-23T03:04:53.444Z,1.77
2019-05-23T03:09:57.313Z,2.13
2019-05-23T03:15:02.832Z,1.80
2019-05-23T03:20:08.304Z,2.30
2019-05-23T03:25:53.940Z,1.97
2019-05-23T03:31:25.030Z,1.77
2019-05-23T03:36:08.077Z,1.80
2019-05-23T03:41:12.392Z,2.10
2019-05-23T03:46:20.146Z,1.70
2019-05-23T03:51:24.369Z,2.03
2019-05-23T03:56:28.228Z,1.63
2019-05-23T04:01:47.020Z,2.00
2019-05-23T04:06:39.510Z,1.70
2019-05-23T04:11:43.517Z,1.90
2019-05-23T04:16:47.827Z,1.80
2019-05-23T04:21:51.624Z,1.80
2019-05-23T04:26:55.486Z,1.63
2019-05-23T04:32:08.207Z,1.50
2019-05-23T04:37:04.570Z,1.50
2019-05-23T04:42:09.050Z,1.87
2019-05-23T04:47:12.770Z,1.60
2019-05-23T04:52:16.851Z,1.77
2019-05-23T04:57:22.222Z,1.70
2019-05-23T05:02:27.208Z,2.00
2019-05-23T05:07:31.496Z,1.53
2019-05-23T05:12:36.401Z,1.70
2019-05-23T05:17:41.024Z,2.23
2019-05-23T05:22:45.580Z,2.00
2019-05-23T05:27:49.393Z,1.70
2019-05-23T05:32:53.303Z,1.80
2019-05-23T05:37:57.182Z,1.80
2019-05-23T05:43:01.172Z,1.60
2019-05-23T05:48:05.843Z,1.67
2019-05-23T05:53:10.369Z,1.70
2019-05-23T05:58:14.244Z,2.20
2019-05-23T06:03:18.495Z,1.93
2019-05-23T06:08:24.187Z,2.13
2019-05-23T06:13:28.129Z,1.70
2019-05-23T06:18:33.100Z,1.40
2019-05-23T06:23:37.151Z,2.00
2019-05-23T06:28:41.222Z,1.60
2019-05-23T06:33:45.437Z,1.50
2019-05-23T06:38:50.979Z,2.10
2019-05-23T06:43:54.678Z,1.77
2019-05-23T06:48:58.881Z,2.50
2019-05-23T06:54:03.055Z,2.30
2019-05-23T06:59:26.066Z,1.97
2019-05-23T07:04:30.947Z,2.67
2019-05-23T07:09:34.775Z,2.93
2019-05-23T07:14:38.973Z,2.23
2019-05-23T07:19:42.791Z,2.30
2019-05-23T07:24:57.582Z,1.83
2019-05-23T07:29:52.331Z,2.00
2019-05-23T07:34:56.105Z,2.80
2019-05-23T07:39:59.962Z,1.93
2019-05-23T07:45:05.215Z,3.03
2019-05-23T07:50:08.993Z,2.07
2019-05-23T07:55:31.886Z,2.20
2019-05-23T08:00:38.397Z,1.90
2019-05-23T08:05:42.712Z,1.80
2019-05-23T08:10:46.779Z,1.80
2019-05-23T08:15:50.637Z,2.60
2019-05-23T08:20:54.612Z,2.40
2019-05-23T08:25:58.953Z,2.23
2019-05-23T08:31:03.034Z,2.30
2019-05-23T08:36:07.348Z,2.10
2019-05-23T08:41:11.699Z,3.30
2019-05-23T08:46:16.840Z,3.57
2019-05-23T08:51:20.672Z,2.63
2019-05-23T08:56:24.977Z,3.33
2019-05-23T09:01:29.141Z,3.43
2019-05-23T09:06:33.508Z,3.30
2019-05-23T09:11:38.062Z,4.10
2019-05-23T09:16:41.913Z,3.60
2019-05-23T09:21:45.992Z,3.47
2019-05-23T09:26:50.441Z,3.33
2019-05-23T09:31:54.258Z,3.50
2019-05-23T09:37:00.346Z,3.20
2019-05-23T09:42:03.955Z,3.07
2019-05-23T09:47:07.860Z,3.67
2019-05-23T09:52:13.015Z,3.43
2019-05-23T09:57:17.136Z,3.43
2019-05-23T10:02:20.922Z,3.07
2019-05-23T10:07:24.830Z,2.90
2019-05-23T10:12:28.590Z,2.87
2019-05-23T10:17:32.931Z,3.63
2019-05-23T10:22:36.957Z,2.73
2019-05-23T10:27:40.777Z,3.00
2019-05-23T10:32:44.755Z,3.03
2019-05-23T10:37:48.570Z,2.67
2019-05-23T10:42:52.778Z,2.93
2019-05-23T10:47:56.611Z,2.10
2019-05-23T10:53:00.547Z,2.50
2019-05-23T10:58:04.497Z,2.67
2019-05-23T11:03:08.361Z,3.40
2019-05-23T11:08:12.833Z,2.67
2019-05-23T11:13:16.686Z,1.83
2019-05-23T11:18:20.561Z,2.20
2019-05-23T11:23:28.791Z,2.60
2019-05-23T11:28:34.459Z,1.80
2019-05-23T11:33:38.648Z,2.17
2019-05-23T11:38:42.509Z,2.20
2019-05-23T11:43:46.442Z,2.63
2019-05-23T11:48:51.257Z,2.07
2019-05-23T11:54:06.672Z,1.77
2019-05-23T11:59:01.729Z,2.33
2019-05-23T12:04:37.148Z,1.90
2019-05-23T12:09:41.143Z,2.03
2019-05-23T12:14:45.043Z,2.20
2019-05-23T12:19:48.953Z,2.10
2019-05-23T12:24:52.837Z,2.40
2019-05-23T12:29:57.421Z,2.30
2019-05-23T12:35:10.374Z,2.00
2019-05-23T12:40:08.230Z,1.70
2019-05-23T12:45:12.164Z,2.27
2019-05-23T12:50:18.978Z,2.07
2019-05-23T12:55:23.042Z,2.00
2019-05-23T13:00:39.208Z,2.20
2019-05-23T13:05:43.157Z,2.33
2019-05-23T13:10:46.896Z,2.43
2019-05-23T13:15:51.837Z,2.17
2019-05-23T13:20:59.275Z,1.80
2019-05-23T13:26:01.357Z,2.13
2019-05-23T13:31:05.625Z,2.10
2019-05-23T13:36:09.487Z,1.63
2019-05-23T13:41:15.283Z,2.10
2019-05-23T13:46:19.099Z,1.80
2019-05-23T13:51:23.048Z,1.93
2019-05-23T13:56:27.007Z,1.77
2019-05-23T14:01:30.859Z,2.10
2019-05-23T14:06:34.757Z,1.90
2019-05-23T14:11:39.094Z,1.90
2019-05-23T14:16:53.084Z,2.20
2019-05-23T14:21:57.542Z,2.63
2019-05-23T14:27:11.215Z,2.60
2019-05-23T14:32:32.479Z,2.33
2019-05-23T14:37:41.435Z,2.30
2019-05-23T14:43:06.685Z,2.40
2019-05-23T14:48:47.383Z,2.40
2019-05-23T14:53:55.624Z,4.17
2019-05-23T14:58:59.473Z,3.27
2019-05-23T15:04:03.436Z,3.20
2019-05-23T15:09:08.216Z,2.73
2019-05-23T15:14:12.091Z,2.67
2019-05-23T15:19:34.810Z,2.40
2019-05-23T15:24:21.677Z,2.60
2019-05-23T15:29:29.254Z,2.10
2019-05-23T15:34:34.840Z,2.00
2019-05-23T15:39:37.299Z,2.60
2019-05-23T15:44:41.305Z,2.63
2019-05-23T15:49:46.745Z,2.07
2019-05-23T15:54:54.752Z,3.13
2019-05-23T16:00:15.224Z,2.40
2019-05-23T16:05:19.168Z,3.07
2019-05-23T16:10:23.010Z,2.10
2019-05-23T16:15:27.542Z,2.70
2019-05-23T16:20:31.441Z,2.87
2019-05-23T16:25:35.262Z,2.43
2019-05-23T16:30:39.107Z,2.50
2019-05-23T16:35:42.886Z,3.07
2019-05-23T16:40:46.780Z,2.53
2019-05-23T16:45:50.513Z,3.10
2019-05-23T16:50:54.416Z,3.90
2019-05-23T16:56:04.120Z,2.93
2019-05-23T17:01:24.125Z,3.20
2019-05-23T17:06:31.669Z,3.10
2019-05-23T17:11:50.732Z,4.20
2019-05-23T17:17:12.508Z,3.10
2019-05-23T17:22:35.802Z,3.87
2019-05-23T17:27:48.324Z,3.53
2019-05-23T17:32:52.663Z,3.57
2019-05-23T17:37:56.628Z,3.37
2019-05-23T17:43:00.415Z,3.67
2019-05-23T17:48:05.306Z,3.27
2019-05-23T17:53:09.189Z,3.13
2019-05-23T17:58:13.140Z,3.20
2019-05-23T18:03:17.528Z,5.50
2019-05-23T18:08:22.032Z,5.30
2019-05-23T18:13:26.856Z,6.40
2019-05-23T18:18:30.952Z,4.50
2019-05-23T18:23:35.286Z,4.67
2019-05-23T18:28:39.524Z,4.80
2019-05-23T18:33:43.849Z,4.20
2019-05-23T18:38:47.880Z,5.17
2019-05-23T18:43:52.458Z,4.20
2019-05-23T18:48:56.711Z,4.43
2019-05-23T18:54:00.519Z,4.20
2019-05-23T18:59:04.696Z,4.00
2019-05-23T19:04:08.898Z,4.13
2019-05-23T19:09:14.204Z,4.50
2019-05-23T19:14:18.316Z,4.47
2019-05-23T19:19:22.169Z,4.90
2019-05-23T19:24:26.117Z,4.37
2019-05-23T19:29:30.252Z,6.30
2019-05-23T19:34:34.710Z,5.93
2019-05-23T19:39:39.541Z,4.70
2019-05-23T19:44:43.647Z,5.90
2019-05-23T19:49:47.531Z,6.50
2019-05-23T19:54:51.406Z,5.77
2019-05-23T19:59:55.185Z,7.47
2019-05-23T20:05:04.852Z,5.87
2019-05-23T20:10:09.035Z,8.40
2019-05-23T20:15:12.923Z,6.67
2019-05-23T20:20:16.820Z,8.20
2019-05-23T20:25:20.861Z,10.17
2019-05-23T20:30:54.017Z,8.73
2019-05-23T20:35:58.384Z,8.10
2019-05-23T20:41:02.269Z,6.40
2019-05-23T20:46:06.140Z,6.70
2019-05-23T20:51:10.113Z,5.70
2019-05-23T20:56:14.158Z,5.50
2019-05-23T21:01:28.338Z,4.90
2019-05-23T21:06:32.229Z,4.00
2019-05-23T21:11:36.328Z,4.93
2019-05-23T21:16:40.447Z,3.90
2019-05-23T21:21:44.440Z,3.90
2019-05-23T21:26:48.247Z,4.70
2019-05-23T21:31:52.201Z,5.27
2019-05-23T21:36:56.012Z,4.60
2019-05-23T21:42:00.099Z,4.70
2019-05-23T21:47:03.985Z,4.53
2019-05-23T21:52:08.081Z,5.00
2019-05-23T21:57:12.138Z,5.10
2019-05-23T22:02:25.677Z,4.20
2019-05-23T22:07:29.687Z,4.07
2019-05-23T22:12:33.741Z,3.77
2019-05-23T22:17:38.089Z,3.80
2019-05-23T22:22:42.098Z,3.70
2019-05-23T22:27:45.879Z,3.90
2019-05-23T22:32:49.829Z,3.97
2019-05-23T22:37:54.083Z,3.83
2019-05-23T22:42:58.470Z,3.67
2019-05-23T22:48:02.465Z,3.87
2019-05-23T22:53:06.474Z,3.73
2019-05-23T22:58:10.243Z,3.73
2019-05-23T23:03:14.246Z,3.90
2019-05-23T23:08:18.838Z,3.50
2019-05-23T23:13:37.643Z,4.93
2019-05-23T23:18:28.606Z,4.17
2019-05-23T23:23:32.552Z,3.63
2019-05-23T23:28:37.369Z,3.00
2019-05-23T23:33:41.192Z,3.60
2019-05-23T23:38:44.937Z,4.20
2019-05-23T23:43:58.741Z,3.90
2019-05-23T23:49:11.858Z,3.80
2019-05-23T23:54:33.495Z,3.63
2019-05-23T23:59:36.519Z,3.50
